sensor_id;sensor_type;location;lat;lon;timestamp;pressure;altitude;pressure_sealevel;temperature;humidity
76728;BME280;65652;53.132;18.026;2022-12-29T00:02:24;100545.23;;;6.44;79.56
76728;BME280;65652;53.132;18.026;2022-12-29T00:04:51;100546.69;;;6.41;79.73
76728;BME280;65652;53.132;18.026;2022-12-29T00:07:18;100537.23;;;6.36;79.88
76728;BME280;65652;53.132;18.026;2022-12-29T00:09:45;100534.86;;;6.34;79.88
76728;BME280;65652;53.132;18.026;2022-12-29T00:12:12;100529.36;;;6.33;80.04
76728;BME280;65652;53.132;18.026;2022-12-29T00:14:39;100522.96;;;6.32;79.97
76728;BME280;65652;53.132;18.026;2022-12-29T00:17:24;100522.91;;;6.32;80.18
76728;BME280;65652;53.132;18.026;2022-12-29T00:19:51;100523.06;;;6.33;80.62
76728;BME280;65652;53.132;18.026;2022-12-29T00:22:36;100524.76;;;6.31;80.59
76728;BME280;65652;53.132;18.026;2022-12-29T00:25:21;100522.70;;;6.28;80.81
76728;BME280;65652;53.132;18.026;2022-12-29T00:28:10;100514.16;;;6.25;80.76
76728;BME280;65652;53.132;18.026;2022-12-29T00:30:59;100518.38;;;6.25;81.05
76728;BME280;65652;53.132;18.026;2022-12-29T00:33:45;100513.60;;;6.23;81.27
76728;BME280;65652;53.132;18.026;2022-12-29T00:36:33;100512.66;;;6.22;81.18
76728;BME280;65652;53.132;18.026;2022-12-29T00:39:10;100510.21;;;6.21;81.55
76728;BME280;65652;53.132;18.026;2022-12-29T00:42:06;100513.90;;;6.21;81.52
76728;BME280;65652;53.132;18.026;2022-12-29T00:44:52;100508.00;;;6.20;81.54
76728;BME280;65652;53.132;18.026;2022-12-29T00:47:18;100511.14;;;6.21;81.53
76728;BME280;65652;53.132;18.026;2022-12-29T00:49:45;100509.70;;;6.21;81.51
76728;BME280;65652;53.132;18.026;2022-12-29T00:52:13;100508.19;;;6.23;81.67
76728;BME280;65652;53.132;18.026;2022-12-29T00:54:40;100505.45;;;6.24;81.49
76728;BME280;65652;53.132;18.026;2022-12-29T00:57:09;100508.98;;;6.24;81.48
76728;BME280;65652;53.132;18.026;2022-12-29T00:59:37;100511.27;;;6.24;81.52
76728;BME280;65652;53.132;18.026;2022-12-29T01:02:04;100515.60;;;6.22;81.63
76728;BME280;65652;53.132;18.026;2022-12-29T01:04:32;100523.67;;;6.20;81.55
76728;BME280;65652;53.132;18.026;2022-12-29T01:06:59;100526.68;;;6.19;81.81
76728;BME280;65652;53.132;18.026;2022-12-29T01:09:26;100524.17;;;6.20;81.76
76728;BME280;65652;53.132;18.026;2022-12-29T01:12:12;100526.98;;;6.19;81.62
76728;BME280;65652;53.132;18.026;2022-12-29T01:14:39;100530.27;;;6.20;81.66
76728;BME280;65652;53.132;18.026;2022-12-29T01:17:06;100525.74;;;6.22;81.80
76728;BME280;65652;53.132;18.026;2022-12-29T01:19:33;100517.39;;;6.24;81.56
76728;BME280;65652;53.132;18.026;2022-12-29T01:22:01;100511.14;;;6.26;81.51
76728;BME280;65652;53.132;18.026;2022-12-29T01:24:28;100507.36;;;6.27;81.19
76728;BME280;65652;53.132;18.026;2022-12-29T01:26:55;100502.83;;;6.29;81.23
76728;BME280;65652;53.132;18.026;2022-12-29T01:29:22;100509.47;;;6.31;81.19
76728;BME280;65652;53.132;18.026;2022-12-29T01:31:49;100510.73;;;6.33;81.12
76728;BME280;65652;53.132;18.026;2022-12-29T01:34:17;100508.67;;;6.33;80.96
76728;BME280;65652;53.132;18.026;2022-12-29T01:36:44;100507.34;;;6.32;81.00
76728;BME280;65652;53.132;18.026;2022-12-29T01:39:12;100506.55;;;6.31;81.06
76728;BME280;65652;53.132;18.026;2022-12-29T01:41:38;100497.48;;;6.30;81.03
76728;BME280;65652;53.132;18.026;2022-12-29T01:47:10;100489.16;;;6.31;80.64
76728;BME280;65652;53.132;18.026;2022-12-29T01:49:38;100485.63;;;6.31;80.79
76728;BME280;65652;53.132;18.026;2022-12-29T01:52:07;100486.47;;;6.32;80.71
76728;BME280;65652;53.132;18.026;2022-12-29T01:54:39;100485.28;;;6.31;80.54
76728;BME280;65652;53.132;18.026;2022-12-29T01:57:12;100478.75;;;6.32;80.74
76728;BME280;65652;53.132;18.026;2022-12-29T01:59:48;100471.80;;;6.33;80.86
76728;BME280;65652;53.132;18.026;2022-12-29T02:02:17;100460.33;;;6.34;80.52
76728;BME280;65652;53.132;18.026;2022-12-29T02:04:44;100449.38;;;6.35;80.49
76728;BME280;65652;53.132;18.026;2022-12-29T02:07:19;100453.92;;;6.38;80.33
76728;BME280;65652;53.132;18.026;2022-12-29T02:09:47;100447.81;;;6.40;80.38
76728;BME280;65652;53.132;18.026;2022-12-29T02:12:16;100447.21;;;6.41;80.24
76728;BME280;65652;53.132;18.026;2022-12-29T02:14:44;100438.60;;;6.41;80.29
76728;BME280;65652;53.132;18.026;2022-12-29T02:34:29;100406.45;;;6.56;79.76
76728;BME280;65652;53.132;18.026;2022-12-29T02:37:08;100391.73;;;6.56;79.53
76728;BME280;65652;53.132;18.026;2022-12-29T02:45:02;100392.17;;;6.59;79.45
76728;BME280;65652;53.132;18.026;2022-12-29T02:50:25;100386.00;;;6.64;79.07
76728;BME280;65652;53.132;18.026;2022-12-29T02:52:58;100378.67;;;6.65;79.10
76728;BME280;65652;53.132;18.026;2022-12-29T02:55:26;100379.77;;;6.67;78.84
76728;BME280;65652;53.132;18.026;2022-12-29T03:01:32;100377.31;;;6.72;78.97
76728;BME280;65652;53.132;18.026;2022-12-29T03:15:03;100374.98;;;6.79;78.13
76728;BME280;65652;53.132;18.026;2022-12-29T03:18:05;100375.20;;;6.81;78.10
76728;BME280;65652;53.132;18.026;2022-12-29T03:21:05;100373.48;;;6.81;78.16
76728;BME280;65652;53.132;18.026;2022-12-29T03:23:30;100369.86;;;6.80;78.30
76728;BME280;65652;53.132;18.026;2022-12-29T03:26:02;100373.71;;;6.77;78.51
76728;BME280;65652;53.132;18.026;2022-12-29T03:28:36;100366.45;;;6.76;78.50
76728;BME280;65652;53.132;18.026;2022-12-29T03:31:06;100362.70;;;6.77;78.29
76728;BME280;65652;53.132;18.026;2022-12-29T03:33:36;100367.38;;;6.78;78.49
76728;BME280;65652;53.132;18.026;2022-12-29T03:36:08;100365.77;;;6.78;78.53
76728;BME280;65652;53.132;18.026;2022-12-29T03:38:50;100358.06;;;6.78;78.59
76728;BME280;65652;53.132;18.026;2022-12-29T03:41:24;100357.14;;;6.79;78.46
76728;BME280;65652;53.132;18.026;2022-12-29T03:43:53;100359.80;;;6.78;78.63
76728;BME280;65652;53.132;18.026;2022-12-29T03:46:20;100362.80;;;6.78;78.71
76728;BME280;65652;53.132;18.026;2022-12-29T03:48:47;100361.98;;;6.77;78.93
76728;BME280;65652;53.132;18.026;2022-12-29T03:51:14;100361.80;;;6.77;78.91
76728;BME280;65652;53.132;18.026;2022-12-29T03:53:41;100360.08;;;6.77;78.90
76728;BME280;65652;53.132;18.026;2022-12-29T03:56:08;100352.08;;;6.76;78.92
76728;BME280;65652;53.132;18.026;2022-12-29T03:58:35;100350.16;;;6.76;79.06
76728;BME280;65652;53.132;18.026;2022-12-29T04:01:11;100354.17;;;6.74;78.95
76728;BME280;65652;53.132;18.026;2022-12-29T04:03:37;100356.54;;;6.70;79.11
76728;BME280;65652;53.132;18.026;2022-12-29T04:06:05;100355.70;;;6.70;79.10
76728;BME280;65652;53.132;18.026;2022-12-29T04:08:52;100347.61;;;6.70;79.23
76728;BME280;65652;53.132;18.026;2022-12-29T04:11:21;100343.88;;;6.71;79.01
76728;BME280;65652;53.132;18.026;2022-12-29T04:13:47;100337.95;;;6.70;79.19
76728;BME280;65652;53.132;18.026;2022-12-29T04:16:18;100334.42;;;6.70;79.34
76728;BME280;65652;53.132;18.026;2022-12-29T04:18:45;100333.45;;;6.69;79.13
76728;BME280;65652;53.132;18.026;2022-12-29T04:21:12;100328.08;;;6.69;79.16
76728;BME280;65652;53.132;18.026;2022-12-29T04:23:41;100325.06;;;6.67;79.13
76728;BME280;65652;53.132;18.026;2022-12-29T04:26:10;100319.68;;;6.66;79.19
76728;BME280;65652;53.132;18.026;2022-12-29T04:28:49;100323.29;;;6.67;79.24
76728;BME280;65652;53.132;18.026;2022-12-29T04:31:36;100320.35;;;6.66;79.32
76728;BME280;65652;53.132;18.026;2022-12-29T04:34:03;100316.63;;;6.67;79.27
76728;BME280;65652;53.132;18.026;2022-12-29T04:36:30;100312.48;;;6.68;79.00
76728;BME280;65652;53.132;18.026;2022-12-29T04:38:57;100309.06;;;6.69;78.98
76728;BME280;65652;53.132;18.026;2022-12-29T04:41:24;100308.98;;;6.70;79.01
76728;BME280;65652;53.132;18.026;2022-12-29T04:43:51;100306.33;;;6.71;79.13
76728;BME280;65652;53.132;18.026;2022-12-29T04:46:38;100314.91;;;6.71;79.23
76728;BME280;65652;53.132;18.026;2022-12-29T04:49:10;100306.70;;;6.71;79.05
76728;BME280;65652;53.132;18.026;2022-12-29T04:51:48;100309.77;;;6.72;79.10
76728;BME280;65652;53.132;18.026;2022-12-29T04:54:16;100312.25;;;6.74;78.98
76728;BME280;65652;53.132;18.026;2022-12-29T04:56:47;100302.77;;;6.76;78.86
76728;BME280;65652;53.132;18.026;2022-12-29T04:59:16;100298.94;;;6.78;78.77
76728;BME280;65652;53.132;18.026;2022-12-29T05:01:45;100300.66;;;6.80;78.71
76728;BME280;65652;53.132;18.026;2022-12-29T05:04:12;100310.95;;;6.83;78.73
76728;BME280;65652;53.132;18.026;2022-12-29T05:06:41;100307.87;;;6.87;78.43
76728;BME280;65652;53.132;18.026;2022-12-29T05:09:07;100309.57;;;6.88;78.43
76728;BME280;65652;53.132;18.026;2022-12-29T05:11:35;100309.16;;;6.88;78.57
76728;BME280;65652;53.132;18.026;2022-12-29T05:14:02;100302.84;;;6.88;78.64
76728;BME280;65652;53.132;18.026;2022-12-29T05:16:29;100305.36;;;6.88;78.27
76728;BME280;65652;53.132;18.026;2022-12-29T05:18:57;100310.71;;;6.89;78.31
76728;BME280;65652;53.132;18.026;2022-12-29T05:21:24;100308.61;;;6.89;78.59
76728;BME280;65652;53.132;18.026;2022-12-29T05:23:51;100309.74;;;6.90;78.43
76728;BME280;65652;53.132;18.026;2022-12-29T05:26:18;100290.92;;;6.93;78.42
76728;BME280;65652;53.132;18.026;2022-12-29T05:29:05;100283.65;;;6.96;78.18
76728;BME280;65652;53.132;18.026;2022-12-29T05:31:33;100276.67;;;6.97;78.10
76728;BME280;65652;53.132;18.026;2022-12-29T05:34:02;100275.94;;;6.98;78.09
76728;BME280;65652;53.132;18.026;2022-12-29T05:36:30;100277.02;;;7.00;77.82
76728;BME280;65652;53.132;18.026;2022-12-29T05:38:59;100270.67;;;7.00;77.96
76728;BME280;65652;53.132;18.026;2022-12-29T05:41:26;100267.30;;;7.01;77.88
76728;BME280;65652;53.132;18.026;2022-12-29T05:43:56;100259.59;;;7.03;77.80
76728;BME280;65652;53.132;18.026;2022-12-29T05:46:40;100255.88;;;7.05;77.66
76728;BME280;65652;53.132;18.026;2022-12-29T05:49:16;100257.80;;;7.07;77.55
76728;BME280;65652;53.132;18.026;2022-12-29T05:51:58;100252.05;;;7.09;77.54
76728;BME280;65652;53.132;18.026;2022-12-29T05:54:25;100248.28;;;7.10;77.70
76728;BME280;65652;53.132;18.026;2022-12-29T05:56:52;100242.10;;;7.10;77.43
76728;BME280;65652;53.132;18.026;2022-12-29T05:59:20;100239.14;;;7.10;77.44
76728;BME280;65652;53.132;18.026;2022-12-29T06:01:47;100238.64;;;7.10;77.15
76728;BME280;65652;53.132;18.026;2022-12-29T06:04:14;100241.48;;;7.12;77.17
76728;BME280;65652;53.132;18.026;2022-12-29T06:06:42;100243.30;;;7.13;76.86
76728;BME280;65652;53.132;18.026;2022-12-29T06:09:15;100248.39;;;7.15;76.95
76728;BME280;65652;53.132;18.026;2022-12-29T06:11:42;100247.38;;;7.16;76.86
76728;BME280;65652;53.132;18.026;2022-12-29T06:14:10;100244.89;;;7.17;76.78
76728;BME280;65652;53.132;18.026;2022-12-29T06:16:37;100259.08;;;7.17;76.91
76728;BME280;65652;53.132;18.026;2022-12-29T06:19:07;100263.41;;;7.18;76.82
76728;BME280;65652;53.132;18.026;2022-12-29T06:21:34;100257.27;;;7.20;76.75
76728;BME280;65652;53.132;18.026;2022-12-29T06:24:01;100262.05;;;7.22;76.70
76728;BME280;65652;53.132;18.026;2022-12-29T06:26:28;100247.59;;;7.25;76.30
76728;BME280;65652;53.132;18.026;2022-12-29T06:28:56;100242.50;;;7.27;76.23
76728;BME280;65652;53.132;18.026;2022-12-29T06:31:23;100247.65;;;7.28;76.21
76728;BME280;65652;53.132;18.026;2022-12-29T06:33:50;100238.80;;;7.29;75.82
76728;BME280;65652;53.132;18.026;2022-12-29T06:36:17;100239.27;;;7.30;75.95
76728;BME280;65652;53.132;18.026;2022-12-29T06:38:44;100241.02;;;7.32;75.67
76728;BME280;65652;53.132;18.026;2022-12-29T06:41:11;100247.48;;;7.34;75.69
76728;BME280;65652;53.132;18.026;2022-12-29T06:43:57;100251.11;;;7.37;75.57
76728;BME280;65652;53.132;18.026;2022-12-29T06:46:56;100253.31;;;7.39;75.56
76728;BME280;65652;53.132;18.026;2022-12-29T06:49:23;100250.55;;;7.40;75.50
76728;BME280;65652;53.132;18.026;2022-12-29T06:51:50;100251.05;;;7.40;75.09
76728;BME280;65652;53.132;18.026;2022-12-29T06:54:17;100260.77;;;7.42;75.27
76728;BME280;65652;53.132;18.026;2022-12-29T06:56:44;100257.09;;;7.44;75.23
76728;BME280;65652;53.132;18.026;2022-12-29T06:59:11;100264.30;;;7.46;74.94
76728;BME280;65652;53.132;18.026;2022-12-29T07:01:38;100263.05;;;7.48;75.07
76728;BME280;65652;53.132;18.026;2022-12-29T07:04:05;100256.09;;;7.50;75.41
76728;BME280;65652;53.132;18.026;2022-12-29T07:06:32;100252.88;;;7.50;74.83
76728;BME280;65652;53.132;18.026;2022-12-29T07:08:59;100253.58;;;7.50;74.89
76728;BME280;65652;53.132;18.026;2022-12-29T07:11:26;100258.48;;;7.50;74.74
76728;BME280;65652;53.132;18.026;2022-12-29T07:13:52;100259.04;;;7.52;74.98
76728;BME280;65652;53.132;18.026;2022-12-29T07:16:19;100262.64;;;7.53;74.71
76728;BME280;65652;53.132;18.026;2022-12-29T07:18:46;100267.39;;;7.55;74.16
76728;BME280;65652;53.132;18.026;2022-12-29T07:21:13;100265.18;;;7.56;74.38
76728;BME280;65652;53.132;18.026;2022-12-29T07:23:40;100260.89;;;7.57;74.08
76728;BME280;65652;53.132;18.026;2022-12-29T07:26:10;100254.74;;;7.57;74.18
76728;BME280;65652;53.132;18.026;2022-12-29T07:28:38;100255.09;;;7.57;74.10
76728;BME280;65652;53.132;18.026;2022-12-29T07:31:06;100264.48;;;7.59;74.10
76728;BME280;65652;53.132;18.026;2022-12-29T07:33:33;100261.86;;;7.60;74.14
76728;BME280;65652;53.132;18.026;2022-12-29T07:36:00;100265.33;;;7.63;74.10
76728;BME280;65652;53.132;18.026;2022-12-29T07:38:26;100263.64;;;7.64;73.91
76728;BME280;65652;53.132;18.026;2022-12-29T07:40:57;100261.52;;;7.65;73.85
76728;BME280;65652;53.132;18.026;2022-12-29T07:43:24;100252.44;;;7.64;74.13
76728;BME280;65652;53.132;18.026;2022-12-29T07:46:20;100262.19;;;7.63;73.79
76728;BME280;65652;53.132;18.026;2022-12-29T07:48:47;100252.52;;;7.63;73.95
76728;BME280;65652;53.132;18.026;2022-12-29T07:51:14;100250.74;;;7.63;74.05
76728;BME280;65652;53.132;18.026;2022-12-29T07:53:41;100252.56;;;7.64;74.00
76728;BME280;65652;53.132;18.026;2022-12-29T07:56:08;100253.16;;;7.64;74.08
76728;BME280;65652;53.132;18.026;2022-12-29T07:58:35;100243.70;;;7.63;73.70
76728;BME280;65652;53.132;18.026;2022-12-29T08:01:02;100240.80;;;7.62;73.90
76728;BME280;65652;53.132;18.026;2022-12-29T08:03:29;100236.40;;;7.60;73.56
76728;BME280;65652;53.132;18.026;2022-12-29T08:05:56;100235.80;;;7.61;73.62
76728;BME280;65652;53.132;18.026;2022-12-29T08:08:23;100237.09;;;7.63;73.94
76728;BME280;65652;53.132;18.026;2022-12-29T08:10:50;100243.11;;;7.66;73.65
76728;BME280;65652;53.132;18.026;2022-12-29T08:13:17;100252.00;;;7.71;73.46
76728;BME280;65652;53.132;18.026;2022-12-29T08:15:44;100256.60;;;7.75;73.34
76728;BME280;65652;53.132;18.026;2022-12-29T08:18:11;100256.58;;;7.77;73.41
76728;BME280;65652;53.132;18.026;2022-12-29T08:20:38;100255.73;;;7.79;73.22
76728;BME280;65652;53.132;18.026;2022-12-29T08:23:04;100245.98;;;7.82;73.49
76728;BME280;65652;53.132;18.026;2022-12-29T08:25:31;100252.57;;;7.88;73.54
76728;BME280;65652;53.132;18.026;2022-12-29T08:27:58;100250.71;;;7.93;72.81
76728;BME280;65652;53.132;18.026;2022-12-29T08:30:25;100241.53;;;8.00;72.92
76728;BME280;65652;53.132;18.026;2022-12-29T08:32:52;100240.14;;;8.03;73.00
76728;BME280;65652;53.132;18.026;2022-12-29T08:35:19;100243.94;;;8.07;72.94
76728;BME280;65652;53.132;18.026;2022-12-29T08:37:46;100251.48;;;8.09;72.94
76728;BME280;65652;53.132;18.026;2022-12-29T08:40:13;100256.38;;;8.11;72.83
76728;BME280;65652;53.132;18.026;2022-12-29T08:42:40;100253.16;;;8.14;72.68
76728;BME280;65652;53.132;18.026;2022-12-29T08:45:07;100256.34;;;8.18;72.55
76728;BME280;65652;53.132;18.026;2022-12-29T08:47:35;100266.28;;;8.21;72.53
76728;BME280;65652;53.132;18.026;2022-12-29T08:50:02;100272.98;;;8.25;72.56
76728;BME280;65652;53.132;18.026;2022-12-29T08:52:29;100271.93;;;8.29;72.37
76728;BME280;65652;53.132;18.026;2022-12-29T08:54:56;100269.15;;;8.33;72.09
76728;BME280;65652;53.132;18.026;2022-12-29T08:57:23;100262.40;;;8.36;72.50
76728;BME280;65652;53.132;18.026;2022-12-29T09:00:04;100262.98;;;8.39;72.14
76728;BME280;65652;53.132;18.026;2022-12-29T09:02:31;100259.27;;;8.42;71.66
76728;BME280;65652;53.132;18.026;2022-12-29T09:04:58;100256.95;;;8.46;71.71
76728;BME280;65652;53.132;18.026;2022-12-29T09:07:25;100256.95;;;8.50;71.34
76728;BME280;65652;53.132;18.026;2022-12-29T09:09:52;100259.09;;;8.53;71.15
76728;BME280;65652;53.132;18.026;2022-12-29T09:12:19;100256.52;;;8.57;71.31
76728;BME280;65652;53.132;18.026;2022-12-29T09:14:46;100255.47;;;8.59;71.39
76728;BME280;65652;53.132;18.026;2022-12-29T09:17:13;100250.18;;;8.61;71.52
76728;BME280;65652;53.132;18.026;2022-12-29T09:19:59;100251.56;;;8.65;70.75
76728;BME280;65652;53.132;18.026;2022-12-29T09:22:26;100251.48;;;8.68;71.24
76728;BME280;65652;53.132;18.026;2022-12-29T09:24:53;100256.59;;;8.70;71.28
76728;BME280;65652;53.132;18.026;2022-12-29T09:27:19;100258.54;;;8.70;71.18
76728;BME280;65652;53.132;18.026;2022-12-29T09:29:46;100248.58;;;8.69;71.54
76728;BME280;65652;53.132;18.026;2022-12-29T09:32:13;100237.11;;;8.69;71.51
76728;BME280;65652;53.132;18.026;2022-12-29T09:34:40;100246.48;;;8.69;71.37
76728;BME280;65652;53.132;18.026;2022-12-29T09:37:07;100244.49;;;8.70;71.17
76728;BME280;65652;53.132;18.026;2022-12-29T09:39:34;100240.15;;;8.71;71.22
76728;BME280;65652;53.132;18.026;2022-12-29T09:45:07;100236.00;;;8.74;71.29
76728;BME280;65652;53.132;18.026;2022-12-29T09:47:36;100229.77;;;8.75;71.31
76728;BME280;65652;53.132;18.026;2022-12-29T09:53:04;100229.54;;;8.75;70.73
76728;BME280;65652;53.132;18.026;2022-12-29T09:55:40;100222.61;;;8.78;71.08
76728;BME280;65652;53.132;18.026;2022-12-29T09:58:20;100229.70;;;8.81;70.68
76728;BME280;65652;53.132;18.026;2022-12-29T10:00:54;100227.52;;;8.82;70.61
76728;BME280;65652;53.132;18.026;2022-12-29T10:03:26;100230.66;;;8.83;70.24
76728;BME280;65652;53.132;18.026;2022-12-29T10:06:10;100231.15;;;8.83;70.71
76728;BME280;65652;53.132;18.026;2022-12-29T10:11:35;100227.38;;;8.84;70.15
76728;BME280;65652;53.132;18.026;2022-12-29T10:17:00;100216.79;;;8.92;69.95
76728;BME280;65652;53.132;18.026;2022-12-29T10:22:29;100219.36;;;8.97;69.59
76728;BME280;65652;53.132;18.026;2022-12-29T10:25:00;100212.05;;;8.98;69.75
76728;BME280;65652;53.132;18.026;2022-12-29T10:27:31;100218.04;;;8.98;70.32
76728;BME280;65652;53.132;18.026;2022-12-29T10:30:01;100220.53;;;8.97;70.23
76728;BME280;65652;53.132;18.026;2022-12-29T10:32:36;100214.73;;;9.00;69.76
76728;BME280;65652;53.132;18.026;2022-12-29T10:40:36;100215.91;;;9.04;69.87
76728;BME280;65652;53.132;18.026;2022-12-29T10:43:36;100209.98;;;9.05;70.11
76728;BME280;65652;53.132;18.026;2022-12-29T10:46:12;100201.06;;;9.06;70.36
76728;BME280;65652;53.132;18.026;2022-12-29T10:48:41;100210.69;;;9.07;70.19
76728;BME280;65652;53.132;18.026;2022-12-29T10:51:30;100216.15;;;9.09;69.88
76728;BME280;65652;53.132;18.026;2022-12-29T10:54:06;100206.15;;;9.13;69.85
76728;BME280;65652;53.132;18.026;2022-12-29T10:56:43;100202.59;;;9.15;70.22
76728;BME280;65652;53.132;18.026;2022-12-29T10:59:23;100199.85;;;9.18;70.45
76728;BME280;65652;53.132;18.026;2022-12-29T11:01:58;100196.88;;;9.20;69.91
76728;BME280;65652;53.132;18.026;2022-12-29T11:07:16;100199.55;;;9.25;70.02
76728;BME280;65652;53.132;18.026;2022-12-29T11:09:44;100195.91;;;9.26;69.77
76728;BME280;65652;53.132;18.026;2022-12-29T11:14:48;100199.27;;;9.32;69.37
76728;BME280;65652;53.132;18.026;2022-12-29T11:17:27;100184.46;;;9.36;69.48
76728;BME280;65652;53.132;18.026;2022-12-29T11:19:54;100187.34;;;9.38;69.16
76728;BME280;65652;53.132;18.026;2022-12-29T11:22:27;100178.98;;;9.38;69.12
76728;BME280;65652;53.132;18.026;2022-12-29T11:25:05;100164.46;;;9.39;69.34
76728;BME280;65652;53.132;18.026;2022-12-29T11:27:33;100163.68;;;9.40;69.27
76728;BME280;65652;53.132;18.026;2022-12-29T11:30:00;100157.17;;;9.40;69.24
76728;BME280;65652;53.132;18.026;2022-12-29T11:32:28;100160.33;;;9.42;69.05
76728;BME280;65652;53.132;18.026;2022-12-29T11:34:58;100157.17;;;9.47;69.26
76728;BME280;65652;53.132;18.026;2022-12-29T11:37:36;100154.45;;;9.56;69.00
76728;BME280;65652;53.132;18.026;2022-12-29T11:40:18;100146.41;;;9.61;69.04
76728;BME280;65652;53.132;18.026;2022-12-29T11:42:57;100151.27;;;9.82;68.35
76728;BME280;65652;53.132;18.026;2022-12-29T11:45:27;100140.08;;;10.26;67.66
76728;BME280;65652;53.132;18.026;2022-12-29T11:48:11;100134.49;;;10.67;66.95
76728;BME280;65652;53.132;18.026;2022-12-29T11:50:41;100135.86;;;11.10;65.65
76728;BME280;65652;53.132;18.026;2022-12-29T11:53:20;100131.88;;;11.45;65.44
76728;BME280;65652;53.132;18.026;2022-12-29T11:56:00;100123.06;;;11.75;65.08
76728;BME280;65652;53.132;18.026;2022-12-29T11:58:39;100125.73;;;12.07;64.57
76728;BME280;65652;53.132;18.026;2022-12-29T12:01:37;100126.27;;;12.36;64.45
76728;BME280;65652;53.132;18.026;2022-12-29T12:04:10;100126.15;;;12.65;62.93
76728;BME280;65652;53.132;18.026;2022-12-29T12:07:02;100125.73;;;12.84;62.83
76728;BME280;65652;53.132;18.026;2022-12-29T12:09:35;100116.10;;;13.07;62.72
76728;BME280;65652;53.132;18.026;2022-12-29T12:12:04;100113.12;;;13.23;62.07
76728;BME280;65652;53.132;18.026;2022-12-29T12:14:46;100103.77;;;13.35;61.42
76728;BME280;65652;53.132;18.026;2022-12-29T12:17:36;100105.03;;;13.40;60.13
76728;BME280;65652;53.132;18.026;2022-12-29T12:23:19;100119.36;;;13.11;60.47
76728;BME280;65652;53.132;18.026;2022-12-29T12:29:59;100123.73;;;12.92;61.58
76728;BME280;65652;53.132;18.026;2022-12-29T12:32:48;100130.23;;;12.96;60.46
76728;BME280;65652;53.132;18.026;2022-12-29T12:36:04;100121.42;;;12.90;60.91
76728;BME280;65652;53.132;18.026;2022-12-29T12:38:49;100124.93;;;12.84;61.26
76728;BME280;65652;53.132;18.026;2022-12-29T12:58:43;100113.45;;;12.23;61.86
76728;BME280;65652;53.132;18.026;2022-12-29T13:12:18;100102.67;;;12.93;60.74
76728;BME280;65652;53.132;18.026;2022-12-29T13:17:48;100108.84;;;12.75;60.80
76728;BME280;65652;53.132;18.026;2022-12-29T13:20:36;100114.84;;;12.60;60.89
76728;BME280;65652;53.132;18.026;2022-12-29T13:25:51;100112.57;;;12.35;61.39
76728;BME280;65652;53.132;18.026;2022-12-29T13:28:28;100111.35;;;12.20;61.53
76728;BME280;65652;53.132;18.026;2022-12-29T13:31:01;100116.77;;;12.07;61.87
76728;BME280;65652;53.132;18.026;2022-12-29T13:38:43;100125.86;;;11.67;62.82
76728;BME280;65652;53.132;18.026;2022-12-29T13:41:36;100123.64;;;11.60;62.95
76728;BME280;65652;53.132;18.026;2022-12-29T13:44:05;100124.92;;;11.54;63.02
76728;BME280;65652;53.132;18.026;2022-12-29T13:46:44;100127.25;;;11.47;63.35
76728;BME280;65652;53.132;18.026;2022-12-29T13:49:20;100126.74;;;11.40;63.52
76728;BME280;65652;53.132;18.026;2022-12-29T13:51:54;100131.08;;;11.32;63.57
76728;BME280;65652;53.132;18.026;2022-12-29T13:54:45;100132.28;;;11.23;64.06
76728;BME280;65652;53.132;18.026;2022-12-29T14:00:04;100133.58;;;10.96;64.16
76728;BME280;65652;53.132;18.026;2022-12-29T14:08:05;100135.11;;;10.74;65.09
76728;BME280;65652;53.132;18.026;2022-12-29T14:10:51;100137.79;;;10.66;65.27
76728;BME280;65652;53.132;18.026;2022-12-29T14:13:20;100137.36;;;10.60;65.74
76728;BME280;65652;53.132;18.026;2022-12-29T14:15:56;100140.33;;;10.53;65.70
76728;BME280;65652;53.132;18.026;2022-12-29T14:18:26;100146.95;;;10.44;65.87
76728;BME280;65652;53.132;18.026;2022-12-29T14:21:09;100149.63;;;10.37;66.26
76728;BME280;65652;53.132;18.026;2022-12-29T14:23:43;100143.81;;;10.29;66.42
76728;BME280;65652;53.132;18.026;2022-12-29T14:26:18;100141.90;;;10.22;66.68
76728;BME280;65652;53.132;18.026;2022-12-29T14:31:52;100150.67;;;10.13;66.99
76728;BME280;65652;53.132;18.026;2022-12-29T14:36:55;100147.84;;;10.06;67.45
76728;BME280;65652;53.132;18.026;2022-12-29T14:39:43;100144.26;;;10.02;67.37
76728;BME280;65652;53.132;18.026;2022-12-29T14:44:50;100142.42;;;9.97;67.75
76728;BME280;65652;53.132;18.026;2022-12-29T14:50:07;100148.81;;;9.93;67.95
76728;BME280;65652;53.132;18.026;2022-12-29T14:52:56;100142.45;;;9.93;68.20
76728;BME280;65652;53.132;18.026;2022-12-29T14:55:45;100142.08;;;9.96;67.94
76728;BME280;65652;53.132;18.026;2022-12-29T14:58:30;100140.00;;;9.97;67.96
76728;BME280;65652;53.132;18.026;2022-12-29T15:00:58;100142.00;;;9.98;68.00
76728;BME280;65652;53.132;18.026;2022-12-29T15:06:11;100151.36;;;10.00;68.17
76728;BME280;65652;53.132;18.026;2022-12-29T15:11:19;100139.72;;;10.02;68.01
76728;BME280;65652;53.132;18.026;2022-12-29T15:13:48;100140.53;;;10.03;68.08
76728;BME280;65652;53.132;18.026;2022-12-29T15:16:29;100137.40;;;10.06;68.19
76728;BME280;65652;53.132;18.026;2022-12-29T15:18:57;100142.35;;;10.12;67.89
76728;BME280;65652;53.132;18.026;2022-12-29T15:21:35;100138.84;;;10.15;67.83
76728;BME280;65652;53.132;18.026;2022-12-29T15:24:03;100138.01;;;10.18;67.74
76728;BME280;65652;53.132;18.026;2022-12-29T15:26:38;100139.93;;;10.20;67.95
76728;BME280;65652;53.132;18.026;2022-12-29T15:29:39;100139.59;;;10.22;67.77
76728;BME280;65652;53.132;18.026;2022-12-29T15:32:18;100137.16;;;10.23;67.52
76728;BME280;65652;53.132;18.026;2022-12-29T15:34:48;100131.75;;;10.24;67.41